Pond Inlet, Canada
Current Conditions -  °F | °C
As of 11:46 AM on Sunday 21 Dec 2014 (Local Time) from CYIO Reporting Station
Overcast Overcast  
Wind Chill: -30°   Ceiling: 4900
Heat Index: -13°   Visibility: 9mi
Dew Point: -18°   Wind: 8mph
Humidity: 77%   Direction: 170°S
Pressure: 29.94"   Gusts: NA
Location:  72.7°N, 78°W
Report Text: CYIO 211646Z AUTO 17007KT 9SM OVC049 M25/M28 A2994 RMK SLP148
Loading
Personal Weather Stations






























Interactive Weather Map New forecast layout! Learn more

10-Day Weather Forecast

Advertisements
Track Severe Weather on mobile